sensor_id;sensor_type;location;lat;lon;timestamp;pressure;altitude;pressure_sealevel;temperature;humidity
788;BME280;16074;42.708;23.312;2023-10-13T00:01:49;141616.97;;;13.69;100.00
788;BME280;16074;42.708;23.312;2023-10-13T00:04:20;141623.00;;;13.71;100.00
788;BME280;16074;42.708;23.312;2023-10-13T00:07:09;141595.22;;;13.60;100.00
788;BME280;16074;42.708;23.312;2023-10-13T00:09:58;141610.91;;;13.66;100.00
788;BME280;16074;42.708;23.312;2023-10-13T00:12:27;141615.75;;;13.68;100.00
788;BME280;16074;42.708;23.312;2023-10-13T00:14:58;141609.72;;;13.66;100.00
788;BME280;16074;42.708;23.312;2023-10-13T00:17:30;141616.97;;;13.69;100.00
788;BME280;16074;42.708;23.312;2023-10-13T00:19:59;141625.41;;;13.72;100.00
788;BME280;16074;42.708;23.312;2023-10-13T00:22:27;141643.56;;;13.80;100.00
788;BME280;16074;42.708;23.312;2023-10-13T00:24:59;141618.16;;;13.69;100.00
788;BME280;16074;42.708;23.312;2023-10-13T00:27:31;141631.47;;;13.75;100.00
788;BME280;16074;42.708;23.312;2023-10-13T00:30:04;141624.22;;;13.72;100.00
788;BME280;16074;42.708;23.312;2023-10-13T00:32:48;141603.66;;;13.63;100.00
788;BME280;16074;42.708;23.312;2023-10-13T00:35:22;141609.72;;;13.66;100.00
788;BME280;16074;42.708;23.312;2023-10-13T00:37:55;141606.06;;;13.64;100.00
788;BME280;16074;42.708;23.312;2023-10-13T00:40:27;141588.00;;;13.57;100.00
788;BME280;16074;42.708;23.312;2023-10-13T00:43:19;141598.84;;;13.61;100.00
788;BME280;16074;42.708;23.312;2023-10-13T00:46:02;141601.25;;;13.62;100.00
788;BME280;16074;42.708;23.312;2023-10-13T00:48:36;141607.31;;;13.65;100.00
788;BME280;16074;42.708;23.312;2023-10-13T00:51:12;141586.81;;;13.56;100.00
788;BME280;16074;42.708;23.312;2023-10-13T00:53:46;141589.22;;;13.57;100.00
788;BME280;16074;42.708;23.312;2023-10-13T00:56:16;141571.06;;;13.50;100.00
788;BME280;16074;42.708;23.312;2023-10-13T00:58:48;141556.59;;;13.44;100.00
788;BME280;16074;42.708;23.312;2023-10-13T01:01:20;141574.72;;;13.51;100.00
788;BME280;16074;42.708;23.312;2023-10-13T01:03:56;141572.31;;;13.50;100.00
788;BME280;16074;42.708;23.312;2023-10-13T01:06:27;141563.81;;;13.47;100.00
788;BME280;16074;42.708;23.312;2023-10-13T01:08:59;141548.16;;;13.40;100.00
788;BME280;16074;42.708;23.312;2023-10-13T01:11:40;141520.41;;;13.29;100.00
788;BME280;16074;42.708;23.312;2023-10-13T01:14:07;141497.44;;;13.19;100.00
788;BME280;16074;42.708;23.312;2023-10-13T01:16:38;141522.81;;;13.30;100.00
788;BME280;16074;42.708;23.312;2023-10-13T01:19:11;141487.78;;;13.15;100.00
788;BME280;16074;42.708;23.312;2023-10-13T01:21:41;141480.53;;;13.12;100.00
788;BME280;16074;42.708;23.312;2023-10-13T01:24:10;141479.34;;;13.12;100.00
788;BME280;16074;42.708;23.312;2023-10-13T01:26:40;141458.78;;;13.04;100.00
788;BME280;16074;42.708;23.312;2023-10-13T01:29:10;141435.88;;;12.94;100.00
788;BME280;16074;42.708;23.312;2023-10-13T01:31:43;141405.69;;;12.82;100.00
788;BME280;16074;42.708;23.312;2023-10-13T01:34:14;141409.28;;;12.83;100.00
788;BME280;16074;42.708;23.312;2023-10-13T01:36:49;141420.16;;;12.88;100.00
788;BME280;16074;42.708;23.312;2023-10-13T01:39:20;141428.66;;;12.91;100.00
788;BME280;16074;42.708;23.312;2023-10-13T01:41:53;141435.88;;;12.94;100.00
788;BME280;16074;42.708;23.312;2023-10-13T01:44:23;141431.06;;;12.92;100.00
788;BME280;16074;42.708;23.312;2023-10-13T01:46:55;141404.44;;;12.81;100.00
788;BME280;16074;42.708;23.312;2023-10-13T01:49:23;141411.69;;;12.84;100.00
788;BME280;16074;42.708;23.312;2023-10-13T01:51:51;141403.28;;;12.81;100.00
788;BME280;16074;42.708;23.312;2023-10-13T01:54:20;141429.88;;;12.92;100.00
788;BME280;16074;42.708;23.312;2023-10-13T01:56:48;141441.94;;;12.97;100.00
788;BME280;16074;42.708;23.312;2023-10-13T01:59:17;141438.31;;;12.95;100.00
788;BME280;16074;42.708;23.312;2023-10-13T02:01:46;141435.88;;;12.94;100.00
788;BME280;16074;42.708;23.312;2023-10-13T02:04:13;141411.69;;;12.84;100.00
788;BME280;16074;42.708;23.312;2023-10-13T02:06:42;141415.34;;;12.86;100.00
788;BME280;16074;42.708;23.312;2023-10-13T02:09:10;141391.19;;;12.76;100.00
788;BME280;16074;42.708;23.312;2023-10-13T02:11:43;141376.72;;;12.70;100.00
788;BME280;16074;42.708;23.312;2023-10-13T02:14:13;141369.47;;;12.67;100.00
788;BME280;16074;42.708;23.312;2023-10-13T02:16:44;141351.41;;;12.59;100.00
788;BME280;16074;42.708;23.312;2023-10-13T02:19:16;141332.09;;;12.51;100.00
788;BME280;16074;42.708;23.312;2023-10-13T02:21:47;141332.09;;;12.51;100.00
788;BME280;16074;42.708;23.312;2023-10-13T02:24:25;141317.59;;;12.45;100.00
788;BME280;16074;42.708;23.312;2023-10-13T02:26:58;141309.19;;;12.42;100.00
788;BME280;16074;42.708;23.312;2023-10-13T02:29:29;141304.38;;;12.40;100.00
788;BME280;16074;42.708;23.312;2023-10-13T02:31:57;141295.88;;;12.36;100.00
788;BME280;16074;42.708;23.312;2023-10-13T02:34:25;141311.59;;;12.43;100.00
788;BME280;16074;42.708;23.312;2023-10-13T02:36:53;141322.44;;;12.47;100.00
788;BME280;16074;42.708;23.312;2023-10-13T02:39:21;141327.25;;;12.49;100.00
788;BME280;16074;42.708;23.312;2023-10-13T02:41:53;141327.25;;;12.49;100.00
788;BME280;16074;42.708;23.312;2023-10-13T02:44:24;141322.44;;;12.47;100.00
788;BME280;16074;42.708;23.312;2023-10-13T02:46:54;141309.19;;;12.42;100.00
788;BME280;16074;42.708;23.312;2023-10-13T02:49:25;141320.03;;;12.46;100.00
788;BME280;16074;42.708;23.312;2023-10-13T02:51:53;141311.59;;;12.43;100.00
788;BME280;16074;42.708;23.312;2023-10-13T02:54:23;141297.13;;;12.37;100.00
788;BME280;16074;42.708;23.312;2023-10-13T02:56:57;141299.53;;;12.38;100.00
788;BME280;16074;42.708;23.312;2023-10-13T02:59:32;141312.78;;;12.43;100.00
788;BME280;16074;42.708;23.312;2023-10-13T03:02:07;141298.31;;;12.37;100.00
788;BME280;16074;42.708;23.312;2023-10-13T03:04:46;141281.41;;;12.30;100.00
788;BME280;16074;42.708;23.312;2023-10-13T03:07:14;141280.22;;;12.30;100.00
788;BME280;16074;42.708;23.312;2023-10-13T03:09:50;141285.06;;;12.32;100.00
788;BME280;16074;42.708;23.312;2023-10-13T03:12:19;141279.00;;;12.29;100.00
788;BME280;16074;42.708;23.312;2023-10-13T03:14:50;141275.41;;;12.28;100.00
788;BME280;16074;42.708;23.312;2023-10-13T03:17:30;141277.81;;;12.29;100.00
788;BME280;16074;42.708;23.312;2023-10-13T03:20:02;141263.34;;;12.23;100.00
788;BME280;16074;42.708;23.312;2023-10-13T03:22:32;141246.44;;;12.16;100.00
788;BME280;16074;42.708;23.312;2023-10-13T03:25:01;141239.22;;;12.13;100.00
788;BME280;16074;42.708;23.312;2023-10-13T03:27:33;141250.09;;;12.17;100.00
788;BME280;16074;42.708;23.312;2023-10-13T03:30:09;141266.94;;;12.24;100.00
788;BME280;16074;42.708;23.312;2023-10-13T03:32:42;141228.38;;;12.08;100.00
788;BME280;16074;42.708;23.312;2023-10-13T03:35:14;141221.16;;;12.05;100.00
788;BME280;16074;42.708;23.312;2023-10-13T03:37:51;141216.31;;;12.03;100.00
788;BME280;16074;42.708;23.312;2023-10-13T03:40:21;141215.09;;;12.03;100.00
788;BME280;16074;42.708;23.312;2023-10-13T03:43:09;141219.91;;;12.05;100.00
788;BME280;16074;42.708;23.312;2023-10-13T03:45:40;141234.38;;;12.11;100.00
788;BME280;16074;42.708;23.312;2023-10-13T03:48:11;141242.84;;;12.14;100.00
788;BME280;16074;42.708;23.312;2023-10-13T03:50:48;141241.63;;;12.14;100.00
788;BME280;16074;42.708;23.312;2023-10-13T03:53:29;141235.63;;;12.11;100.00
788;BME280;16074;42.708;23.312;2023-10-13T03:56:00;141251.28;;;12.18;100.00
788;BME280;16074;42.708;23.312;2023-10-13T03:58:40;141246.44;;;12.16;100.00
788;BME280;16074;42.708;23.312;2023-10-13T04:01:15;141236.81;;;12.12;100.00
788;BME280;16074;42.708;23.312;2023-10-13T04:03:44;141205.44;;;11.99;100.00
788;BME280;16074;42.708;23.312;2023-10-13T04:06:30;141197.03;;;11.95;100.00
788;BME280;16074;42.708;23.312;2023-10-13T04:09:13;141183.72;;;11.90;100.00
788;BME280;16074;42.708;23.312;2023-10-13T04:12:00;141159.66;;;11.80;100.00
788;BME280;16074;42.708;23.312;2023-10-13T04:14:48;141141.53;;;11.73;100.00
788;BME280;16074;42.708;23.312;2023-10-13T04:17:36;141150.00;;;11.76;100.00
788;BME280;16074;42.708;23.312;2023-10-13T04:20:12;141140.38;;;11.72;100.00
788;BME280;16074;42.708;23.312;2023-10-13T04:22:42;141141.53;;;11.73;100.00
788;BME280;16074;42.708;23.312;2023-10-13T04:25:28;141146.38;;;11.75;100.00
788;BME280;16074;42.708;23.312;2023-10-13T04:28:03;141141.53;;;11.73;100.00
788;BME280;16074;42.708;23.312;2023-10-13T04:30:45;141148.78;;;11.76;100.00
788;BME280;16074;42.708;23.312;2023-10-13T04:33:29;141147.59;;;11.75;100.00
788;BME280;16074;42.708;23.312;2023-10-13T04:36:04;141128.31;;;11.67;100.00
788;BME280;16074;42.708;23.312;2023-10-13T04:38:42;141125.91;;;11.66;100.00
788;BME280;16074;42.708;23.312;2023-10-13T04:41:24;141111.44;;;11.60;100.00
788;BME280;16074;42.708;23.312;2023-10-13T04:43:58;141112.66;;;11.61;100.00
788;BME280;16074;42.708;23.312;2023-10-13T04:46:31;141093.31;;;11.53;100.00
788;BME280;16074;42.708;23.312;2023-10-13T04:49:39;141092.09;;;11.52;100.00
788;BME280;16074;42.708;23.312;2023-10-13T04:52:19;141100.59;;;11.56;100.00
788;BME280;16074;42.708;23.312;2023-10-13T04:55:18;141096.97;;;11.54;100.00
788;BME280;16074;42.708;23.312;2023-10-13T04:58:15;141074.03;;;11.45;100.00
788;BME280;16074;42.708;23.312;2023-10-13T05:01:03;141086.09;;;11.50;100.00
788;BME280;16074;42.708;23.312;2023-10-13T05:04:05;141033.03;;;11.28;100.00
788;BME280;16074;42.708;23.312;2023-10-13T05:06:50;141015.00;;;11.20;100.00
788;BME280;16074;42.708;23.312;2023-10-13T05:09:36;141063.16;;;11.40;100.00
788;BME280;16074;42.708;23.312;2023-10-13T05:12:42;141076.44;;;11.46;100.00
788;BME280;16074;42.708;23.312;2023-10-13T05:15:28;141084.84;;;11.49;100.00
788;BME280;16074;42.708;23.312;2023-10-13T05:18:16;141084.84;;;11.49;100.00
788;BME280;16074;42.708;23.312;2023-10-13T05:21:01;141048.69;;;11.34;100.00
788;BME280;16074;42.708;23.312;2023-10-13T05:23:48;141074.03;;;11.45;100.00
788;BME280;16074;42.708;23.312;2023-10-13T05:26:34;141084.84;;;11.49;100.00
788;BME280;16074;42.708;23.312;2023-10-13T05:29:20;141111.44;;;11.60;100.00
788;BME280;16074;42.708;23.312;2023-10-13T05:32:18;141140.38;;;11.72;100.00
788;BME280;16074;42.708;23.312;2023-10-13T05:35:04;141137.94;;;11.71;100.00
788;BME280;16074;42.708;23.312;2023-10-13T05:37:50;141154.84;;;11.78;100.00
788;BME280;16074;42.708;23.312;2023-10-13T05:40:38;141166.91;;;11.83;100.00
788;BME280;16074;42.708;23.312;2023-10-13T05:43:23;141192.19;;;11.93;100.00
788;BME280;16074;42.708;23.312;2023-10-13T05:46:24;141211.50;;;12.01;100.00
788;BME280;16074;42.708;23.312;2023-10-13T05:49:10;141229.56;;;12.09;100.00
788;BME280;16074;42.708;23.312;2023-10-13T05:52:06;141241.63;;;12.14;100.00
788;BME280;16074;42.708;23.312;2023-10-13T05:54:35;141268.16;;;12.25;100.00
788;BME280;16074;42.708;23.312;2023-10-13T05:57:33;141306.78;;;12.41;100.00
788;BME280;16074;42.708;23.312;2023-10-13T06:00:19;141334.50;;;12.52;100.00
788;BME280;16074;42.708;23.312;2023-10-13T06:03:05;141367.06;;;12.66;100.00
788;BME280;16074;42.708;23.312;2023-10-13T06:05:50;141402.03;;;12.80;100.00
788;BME280;16074;42.708;23.312;2023-10-13T06:08:36;141445.53;;;12.98;100.00
788;BME280;16074;42.708;23.312;2023-10-13T06:11:18;141482.94;;;13.13;100.00
788;BME280;16074;42.708;23.312;2023-10-13T06:14:05;141527.59;;;13.32;100.00
788;BME280;16074;42.708;23.312;2023-10-13T06:16:51;141566.25;;;13.48;100.00
788;BME280;16074;42.708;23.312;2023-10-13T06:19:36;141612.16;;;13.67;100.00
788;BME280;16074;42.708;23.312;2023-10-13T06:22:22;141661.66;;;13.87;100.00
788;BME280;16074;42.708;23.312;2023-10-13T06:25:08;141696.66;;;14.02;100.00
788;BME280;16074;42.708;23.312;2023-10-13T06:27:53;141768.00;;;14.31;100.00
788;BME280;16074;42.708;23.312;2023-10-13T06:30:40;141833.28;;;14.58;100.00
788;BME280;16074;42.708;23.312;2023-10-13T06:33:11;141884.00;;;14.79;100.00
788;BME280;16074;42.708;23.312;2023-10-13T06:35:39;141936.03;;;15.00;100.00
788;BME280;16074;42.708;23.312;2023-10-13T06:38:08;142003.78;;;15.28;100.00
788;BME280;16074;42.708;23.312;2023-10-13T06:40:47;142065.44;;;15.53;96.88
788;BME280;16074;42.708;23.312;2023-10-13T06:43:17;142141.66;;;15.85;94.87
788;BME280;16074;42.708;23.312;2023-10-13T06:45:50;142209.47;;;16.13;93.40
788;BME280;16074;42.708;23.312;2023-10-13T06:48:24;142234.84;;;16.23;90.15
788;BME280;16074;42.708;23.312;2023-10-13T06:50:53;142316.00;;;16.57;88.95
788;BME280;16074;42.708;23.312;2023-10-13T06:53:22;142389.88;;;16.87;86.51
788;BME280;16074;42.708;23.312;2023-10-13T06:55:52;142495.22;;;17.30;83.13
788;BME280;16074;42.708;23.312;2023-10-13T06:58:23;142547.41;;;17.52;82.37
788;BME280;16074;42.708;23.312;2023-10-13T07:00:53;142640.69;;;17.90;79.24
788;BME280;16074;42.708;23.312;2023-10-13T07:03:23;142678.31;;;18.05;77.26
788;BME280;16074;42.708;23.312;2023-10-13T07:05:52;142771.69;;;18.44;73.98
788;BME280;16074;42.708;23.312;2023-10-13T07:08:21;142789.91;;;18.51;72.56
788;BME280;16074;42.708;23.312;2023-10-13T07:10:52;142854.19;;;18.78;69.03
788;BME280;16074;42.708;23.312;2023-10-13T07:13:29;142894.22;;;18.94;69.69
788;BME280;16074;42.708;23.312;2023-10-13T07:16:00;142963.44;;;19.23;68.20
788;BME280;16074;42.708;23.312;2023-10-13T07:18:35;143018.03;;;19.45;67.20
788;BME280;16074;42.708;23.312;2023-10-13T07:21:08;143054.47;;;19.60;64.51
788;BME280;16074;42.708;23.312;2023-10-13T07:23:37;143120.00;;;19.87;63.06
788;BME280;16074;42.708;23.312;2023-10-13T07:26:06;143213.56;;;20.25;61.17
788;BME280;16074;42.708;23.312;2023-10-13T07:28:35;143265.81;;;20.46;60.07
788;BME280;16074;42.708;23.312;2023-10-13T07:31:13;143336.28;;;20.75;58.27
788;BME280;16074;42.708;23.312;2023-10-13T07:33:43;143404.38;;;21.03;57.68
788;BME280;16074;42.708;23.312;2023-10-13T07:36:11;143451.81;;;21.23;55.32
788;BME280;16074;42.708;23.312;2023-10-13T07:38:45;143506.53;;;21.45;54.43
788;BME280;16074;42.708;23.312;2023-10-13T07:41:47;143585.63;;;21.77;52.65
788;BME280;16074;42.708;23.312;2023-10-13T07:44:21;143614.75;;;21.89;52.17
788;BME280;16074;42.708;23.312;2023-10-13T07:46:57;143540.59;;;21.59;52.70
788;BME280;16074;42.708;23.312;2023-10-13T07:49:29;143640.34;;;22.00;52.01
788;BME280;16074;42.708;23.312;2023-10-13T07:52:00;143641.53;;;22.00;51.05
788;BME280;16074;42.708;23.312;2023-10-13T07:54:43;143712.13;;;22.29;50.61
788;BME280;16074;42.708;23.312;2023-10-13T07:57:14;143714.56;;;22.30;50.46
788;BME280;16074;42.708;23.312;2023-10-13T07:59:44;143743.78;;;22.42;50.69
788;BME280;16074;42.708;23.312;2023-10-13T08:02:19;143783.97;;;22.59;50.36
788;BME280;16074;42.708;23.312;2023-10-13T08:05:17;143775.41;;;22.55;50.21
788;BME280;16074;42.708;23.312;2023-10-13T08:07:52;143805.84;;;22.68;49.37
788;BME280;16074;42.708;23.312;2023-10-13T08:10:20;143723.06;;;22.34;50.16
788;BME280;16074;42.708;23.312;2023-10-13T08:12:56;143852.09;;;22.87;50.08
788;BME280;16074;42.708;23.312;2023-10-13T08:15:26;143796.13;;;22.64;50.31
788;BME280;16074;42.708;23.312;2023-10-13T08:18:01;143887.41;;;23.01;49.82
788;BME280;16074;42.708;23.312;2023-10-13T08:20:44;143908.16;;;23.09;49.89
788;BME280;16074;42.708;23.312;2023-10-13T08:23:14;143967.81;;;23.34;48.55
788;BME280;16074;42.708;23.312;2023-10-13T08:26:09;144029.94;;;23.59;47.92
788;BME280;16074;42.708;23.312;2023-10-13T08:28:57;144071.38;;;23.76;46.07
788;BME280;16074;42.708;23.312;2023-10-13T08:31:47;144073.81;;;23.77;46.33
788;BME280;16074;42.708;23.312;2023-10-13T08:34:34;144037.25;;;23.62;46.44
788;BME280;16074;42.708;23.312;2023-10-13T08:37:27;144110.38;;;23.92;46.71
788;BME280;16074;42.708;23.312;2023-10-13T08:40:01;144099.44;;;23.88;45.96
788;BME280;16074;42.708;23.312;2023-10-13T08:42:52;144083.56;;;23.81;46.07
788;BME280;16074;42.708;23.312;2023-10-13T08:45:37;143964.16;;;23.32;47.03
788;BME280;16074;42.708;23.312;2023-10-13T08:48:22;143961.72;;;23.31;47.15
788;BME280;16074;42.708;23.312;2023-10-13T08:50:59;144039.69;;;23.63;46.13
788;BME280;16074;42.708;23.312;2023-10-13T08:53:40;144061.63;;;23.72;46.61
788;BME280;16074;42.708;23.312;2023-10-13T08:56:19;144128.69;;;24.00;46.67
788;BME280;16074;42.708;23.312;2023-10-13T08:59:01;144160.31;;;24.13;46.41
788;BME280;16074;42.708;23.312;2023-10-13T09:01:37;144195.69;;;24.27;45.54
788;BME280;16074;42.708;23.312;2023-10-13T09:04:13;144251.78;;;24.50;44.77
788;BME280;16074;42.708;23.312;2023-10-13T09:06:58;144294.44;;;24.67;44.64
788;BME280;16074;42.708;23.312;2023-10-13T09:09:45;144345.66;;;24.88;45.06
788;BME280;16074;42.708;23.312;2023-10-13T09:12:38;144440.81;;;25.27;43.75
788;BME280;16074;42.708;23.312;2023-10-13T09:15:10;144446.94;;;25.30;44.05
788;BME280;16074;42.708;23.312;2023-10-13T09:18:08;144564.03;;;25.77;42.58
788;BME280;16074;42.708;23.312;2023-10-13T09:20:40;144616.56;;;25.99;42.42
788;BME280;16074;42.708;23.312;2023-10-13T09:23:15;144704.41;;;26.35;41.33
788;BME280;16074;42.708;23.312;2023-10-13T09:25:51;144586.06;;;25.86;41.90
788;BME280;16074;42.708;23.312;2023-10-13T09:28:28;144587.25;;;25.87;41.59
788;BME280;16074;42.708;23.312;2023-10-13T09:30:56;144527.44;;;25.62;42.52
788;BME280;16074;42.708;23.312;2023-10-13T09:33:25;144677.59;;;26.24;41.00
788;BME280;16074;42.708;23.312;2023-10-13T09:36:00;144704.41;;;26.35;41.44
788;BME280;16074;42.708;23.312;2023-10-13T09:38:34;144780.19;;;26.66;40.79
788;BME280;16074;42.708;23.312;2023-10-13T09:41:04;144832.69;;;26.87;40.71
788;BME280;16074;42.708;23.312;2023-10-13T09:43:45;144888.94;;;27.10;39.84
788;BME280;16074;42.708;23.312;2023-10-13T09:46:18;144886.50;;;27.09;39.40
788;BME280;16074;42.708;23.312;2023-10-13T09:48:47;144913.34;;;27.20;39.55
788;BME280;16074;42.708;23.312;2023-10-13T09:51:31;144925.56;;;27.25;38.64
788;BME280;16074;42.708;23.312;2023-10-13T09:54:03;144953.69;;;27.36;38.46
788;BME280;16074;42.708;23.312;2023-10-13T09:56:58;144980.56;;;27.47;38.59
788;BME280;16074;42.708;23.312;2023-10-13T09:59:32;144935.31;;;27.29;38.40
788;BME280;16074;42.708;23.312;2023-10-13T10:02:03;144982.97;;;27.48;38.24
788;BME280;16074;42.708;23.312;2023-10-13T10:04:36;145035.59;;;27.70;37.93
788;BME280;16074;42.708;23.312;2023-10-13T10:07:24;145101.56;;;27.97;36.68
788;BME280;16074;42.708;23.312;2023-10-13T10:09:58;145194.50;;;28.34;35.94
788;BME280;16074;42.708;23.312;2023-10-13T10:12:32;145282.59;;;28.70;35.33
788;BME280;16074;42.708;23.312;2023-10-13T10:15:17;145316.84;;;28.84;34.73
788;BME280;16074;42.708;23.312;2023-10-13T10:17:55;145335.22;;;28.92;33.91
788;BME280;16074;42.708;23.312;2023-10-13T10:20:30;145311.94;;;28.82;34.06
788;BME280;16074;42.708;23.312;2023-10-13T10:23:07;145297.28;;;28.76;34.43
788;BME280;16074;42.708;23.312;2023-10-13T10:25:42;145400.06;;;29.18;33.72
788;BME280;16074;42.708;23.312;2023-10-13T10:28:13;145477.19;;;29.49;32.40
788;BME280;16074;42.708;23.312;2023-10-13T10:30:43;145569.00;;;29.87;32.70
788;BME280;16074;42.708;23.312;2023-10-13T10:33:12;145648.63;;;30.19;31.84
788;BME280;16074;42.708;23.312;2023-10-13T10:35:41;145741.72;;;30.57;31.39
788;BME280;16074;42.708;23.312;2023-10-13T10:38:11;145822.53;;;30.90;30.79
788;BME280;16074;42.708;23.312;2023-10-13T10:40:51;145839.69;;;30.97;30.12
788;BME280;16074;42.708;23.312;2023-10-13T10:43:26;145897.31;;;31.20;30.25
788;BME280;16074;42.708;23.312;2023-10-13T10:46:00;145942.69;;;31.39;30.09
788;BME280;16074;42.708;23.312;2023-10-13T10:48:31;146002.78;;;31.63;29.74
788;BME280;16074;42.708;23.312;2023-10-13T10:51:01;146040.78;;;31.79;29.10
788;BME280;16074;42.708;23.312;2023-10-13T10:53:41;146059.16;;;31.86;29.00
788;BME280;16074;42.708;23.312;2023-10-13T10:56:15;146065.31;;;31.88;28.53
788;BME280;16074;42.708;23.312;2023-10-13T10:58:54;146054.25;;;31.84;28.34
788;BME280;16074;42.708;23.312;2023-10-13T11:01:23;146059.16;;;31.86;28.31
788;BME280;16074;42.708;23.312;2023-10-13T11:04:02;146065.31;;;31.88;27.81
788;BME280;16074;42.708;23.312;2023-10-13T11:06:46;145980.69;;;31.54;28.31
788;BME280;16074;42.708;23.312;2023-10-13T11:09:14;145995.44;;;31.60;27.91
788;BME280;16074;42.708;23.312;2023-10-13T11:11:56;145986.78;;;31.57;27.69
788;BME280;16074;42.708;23.312;2023-10-13T11:14:26;145957.38;;;31.45;28.02
788;BME280;16074;42.708;23.312;2023-10-13T11:16:56;145930.44;;;31.34;28.13
788;BME280;16074;42.708;23.312;2023-10-13T11:19:35;145925.53;;;31.32;28.70
788;BME280;16074;42.708;23.312;2023-10-13T11:22:11;145876.50;;;31.12;29.17
788;BME280;16074;42.708;23.312;2023-10-13T11:24:56;145776.03;;;30.71;29.78
788;BME280;16074;42.708;23.312;2023-10-13T11:27:32;145897.31;;;31.20;28.17
788;BME280;16074;42.708;23.312;2023-10-13T11:30:23;145774.78;;;30.70;29.04
788;BME280;16074;42.708;23.312;2023-10-13T11:33:09;145777.22;;;30.71;29.08
788;BME280;16074;42.708;23.312;2023-10-13T11:35:39;145832.34;;;30.94;28.21
788;BME280;16074;42.708;23.312;2023-10-13T11:38:23;145791.94;;;30.77;28.38
788;BME280;16074;42.708;23.312;2023-10-13T11:40:57;145763.75;;;30.66;28.81
788;BME280;16074;42.708;23.312;2023-10-13T11:43:45;145756.41;;;30.63;29.00
788;BME280;16074;42.708;23.312;2023-10-13T11:46:27;145813.97;;;30.86;29.35
788;BME280;16074;42.708;23.312;2023-10-13T11:49:13;145865.50;;;31.07;29.03
788;BME280;16074;42.708;23.312;2023-10-13T11:51:59;145891.22;;;31.18;28.43
788;BME280;16074;42.708;23.312;2023-10-13T11:54:43;145969.63;;;31.50;28.33
788;BME280;16074;42.708;23.312;2023-10-13T11:57:15;146053.03;;;31.83;28.31
788;BME280;16074;42.708;23.312;2023-10-13T11:59:48;146109.41;;;32.06;26.98
788;BME280;16074;42.708;23.312;2023-10-13T12:02:43;146134.00;;;32.16;26.55
788;BME280;16074;42.708;23.312;2023-10-13T12:05:31;146124.19;;;32.12;26.88
788;BME280;16074;42.708;23.312;2023-10-13T12:08:16;146081.22;;;31.95;26.86
788;BME280;16074;42.708;23.312;2023-10-13T12:10:49;146075.13;;;31.92;26.49
788;BME280;16074;42.708;23.312;2023-10-13T12:13:27;146072.66;;;31.91;26.47
788;BME280;16074;42.708;23.312;2023-10-13T12:15:57;146092.28;;;31.99;26.62
788;BME280;16074;42.708;23.312;2023-10-13T12:18:35;146115.56;;;32.09;26.67
788;BME280;16074;42.708;23.312;2023-10-13T12:21:08;146162.22;;;32.28;26.74
788;BME280;16074;42.708;23.312;2023-10-13T12:23:38;146225.97;;;32.54;26.04
788;BME280;16074;42.708;23.312;2023-10-13T12:26:08;146254.22;;;32.65;25.60
788;BME280;16074;42.708;23.312;2023-10-13T12:28:46;146284.91;;;32.78;25.33
788;BME280;16074;42.708;23.312;2023-10-13T12:31:20;146216.16;;;32.50;24.99
788;BME280;16074;42.708;23.312;2023-10-13T12:33:54;146095.94;;;32.01;26.15
788;BME280;16074;42.708;23.312;2023-10-13T12:36:24;146140.16;;;32.19;26.46
788;BME280;16074;42.708;23.312;2023-10-13T12:39:07;146196.53;;;32.42;27.29
788;BME280;16074;42.708;23.312;2023-10-13T12:41:53;146246.81;;;32.62;25.98
788;BME280;16074;42.708;23.312;2023-10-13T12:44:38;146302.09;;;32.85;25.83
788;BME280;16074;42.708;23.312;2023-10-13T12:47:25;146370.78;;;33.12;25.55
788;BME280;16074;42.708;23.312;2023-10-13T12:50:11;146467.78;;;33.52;25.40
788;BME280;16074;42.708;23.312;2023-10-13T12:53:01;146561.13;;;33.90;25.04
788;BME280;16074;42.708;23.312;2023-10-13T12:55:29;146590.59;;;34.02;24.82
788;BME280;16074;42.708;23.312;2023-10-13T12:57:58;146627.50;;;34.17;24.71
788;BME280;16074;42.708;23.312;2023-10-13T13:00:26;146697.47;;;34.45;24.04
788;BME280;16074;42.708;23.312;2023-10-13T13:03:02;146768.75;;;34.74;23.43
788;BME280;16074;42.708;23.312;2023-10-13T13:05:39;146723.25;;;34.55;23.80
788;BME280;16074;42.708;23.312;2023-10-13T13:08:12;146693.78;;;34.43;23.04
788;BME280;16074;42.708;23.312;2023-10-13T13:10:50;146718.34;;;34.53;23.33
788;BME280;16074;42.708;23.312;2023-10-13T13:13:18;146693.78;;;34.43;23.26
788;BME280;16074;42.708;23.312;2023-10-13T13:15:51;146658.16;;;34.29;24.27
788;BME280;16074;42.708;23.312;2023-10-13T13:18:21;146607.78;;;34.09;24.18
788;BME280;16074;42.708;23.312;2023-10-13T13:20:50;146664.28;;;34.32;24.26
788;BME280;16074;42.708;23.312;2023-10-13T13:23:21;146724.50;;;34.56;24.46
788;BME280;16074;42.708;23.312;2023-10-13T13:25:54;146787.22;;;34.81;23.68
788;BME280;16074;42.708;23.312;2023-10-13T13:28:25;146851.06;;;35.07;23.66
788;BME280;16074;42.708;23.312;2023-10-13T13:30:57;146851.06;;;35.07;23.12
788;BME280;16074;42.708;23.312;2023-10-13T13:33:27;146838.78;;;35.02;23.01
788;BME280;16074;42.708;23.312;2023-10-13T13:36:00;146873.25;;;35.16;23.46
788;BME280;16074;42.708;23.312;2023-10-13T13:38:31;146836.31;;;35.01;23.71
788;BME280;16074;42.708;23.312;2023-10-13T13:41:00;146794.59;;;34.84;23.21
788;BME280;16074;42.708;23.312;2023-10-13T13:43:30;146676.56;;;34.37;23.46
788;BME280;16074;42.708;23.312;2023-10-13T13:46:18;146596.72;;;34.04;24.10